createdAt,value
2022-12-26T00:02:29.586Z,10.30
2022-12-26T00:05:00.691Z,10.30
2022-12-26T00:07:33.533Z,10.30
2022-12-26T00:10:07.121Z,10.20
2022-12-26T00:12:42.377Z,10.10
2022-12-26T00:15:12.944Z,10.10
2022-12-26T00:17:40.407Z,10.10
2022-12-26T00:20:11.698Z,10.10
2022-12-26T00:22:46.908Z,10.10
2022-12-26T00:25:17.738Z,10.20
2022-12-26T00:27:46.458Z,10.20
2022-12-26T00:30:19.401Z,10.20
2022-12-26T00:33:00.077Z,10.20
2022-12-26T00:35:34.565Z,10.30
2022-12-26T00:38:05.346Z,10.30
2022-12-26T00:40:58.691Z,10.40
2022-12-26T00:43:31.049Z,10.40
2022-12-26T00:46:04.516Z,10.40
2022-12-26T00:48:34.593Z,10.50
2022-12-26T00:51:08.480Z,10.50
2022-12-26T00:53:40.216Z,10.50
2022-12-26T00:56:12.378Z,10.50
2022-12-26T00:58:44.749Z,10.50
2022-12-26T01:01:23.024Z,10.50
2022-12-26T01:03:54.515Z,10.50
2022-12-26T01:06:22.456Z,10.40
2022-12-26T01:08:52.874Z,10.50
2022-12-26T01:11:40.693Z,10.50
2022-12-26T01:14:13.915Z,10.40
2022-12-26T01:16:45.582Z,10.40
2022-12-26T01:22:04.805Z,10.40
2022-12-26T01:24:33.331Z,10.40
2022-12-26T01:27:06.038Z,10.40
2022-12-26T01:29:38.278Z,10.40
2022-12-26T01:32:09.459Z,10.40
2022-12-26T01:34:41.827Z,10.40
2022-12-26T01:37:14.682Z,10.30
2022-12-26T01:39:46.368Z,10.30
2022-12-26T01:42:20.911Z,10.30
2022-12-26T01:45:03.166Z,10.30
2022-12-26T01:47:54.359Z,10.30
2022-12-26T01:51:00.745Z,10.30
2022-12-26T01:53:41.744Z,10.40
2022-12-26T01:56:42.454Z,10.40
2022-12-26T01:59:30.226Z,10.40
2022-12-26T02:02:03.178Z,10.40
2022-12-26T02:05:00.988Z,10.40
2022-12-26T02:07:36.529Z,10.50
2022-12-26T02:10:11.766Z,10.60
2022-12-26T02:12:41.622Z,10.60
2022-12-26T02:15:34.700Z,10.60
2022-12-26T02:18:05.722Z,10.60
2022-12-26T02:20:58.501Z,10.50
2022-12-26T02:24:14.279Z,10.60
2022-12-26T02:26:45.500Z,10.60
2022-12-26T02:30:05.037Z,10.60
2022-12-26T02:33:01.760Z,10.50
2022-12-26T02:36:02.167Z,10.60
2022-12-26T02:39:44.572Z,10.60
2022-12-26T02:42:22.033Z,10.60
2022-12-26T02:45:49.760Z,10.70
2022-12-26T02:48:42.507Z,10.60
2022-12-26T02:51:53.021Z,10.60
2022-12-26T02:55:06.177Z,10.50
2022-12-26T02:58:07.265Z,10.50
2022-12-26T03:01:04.493Z,10.50
2022-12-26T03:04:03.737Z,10.40
2022-12-26T03:06:57.554Z,10.30
2022-12-26T03:09:53.908Z,10.30
2022-12-26T03:12:55.301Z,10.40
2022-12-26T03:15:36.032Z,10.40
2022-12-26T03:18:06.725Z,10.30
2022-12-26T03:20:38.825Z,10.30
2022-12-26T03:23:14.749Z,10.30
2022-12-26T03:26:19.310Z,10.30
2022-12-26T03:28:49.031Z,10.30
2022-12-26T03:34:51.414Z,10.50
2022-12-26T03:37:54.958Z,10.50
2022-12-26T03:41:06.257Z,10.60
2022-12-26T03:45:11.019Z,10.60
2022-12-26T03:48:26.089Z,10.50
2022-12-26T03:51:49.091Z,10.50
2022-12-26T03:54:46.461Z,10.40
2022-12-26T03:57:40.168Z,10.50
2022-12-26T04:00:33.611Z,10.50
2022-12-26T04:03:31.126Z,10.40
2022-12-26T04:06:27.752Z,10.40
2022-12-26T04:09:20.324Z,10.40
2022-12-26T04:12:10.447Z,10.50
2022-12-26T04:15:19.036Z,10.50
2022-12-26T04:18:35.976Z,10.40
2022-12-26T04:22:16.113Z,10.50
2022-12-26T04:25:50.299Z,10.40
2022-12-26T04:28:38.215Z,10.40
2022-12-26T04:31:55.427Z,10.40
2022-12-26T04:34:54.223Z,10.40
2022-12-26T04:37:47.169Z,10.50
2022-12-26T04:40:41.571Z,10.50
2022-12-26T04:43:47.163Z,10.50
2022-12-26T04:46:25.612Z,10.50
2022-12-26T04:49:14.171Z,10.60
2022-12-26T04:51:44.365Z,10.60
2022-12-26T04:54:16.626Z,10.70
2022-12-26T04:56:47.845Z,10.70
2022-12-26T04:59:18.180Z,10.70
2022-12-26T05:02:06.647Z,10.70
2022-12-26T05:04:56.446Z,10.70
2022-12-26T05:07:55.859Z,10.70
2022-12-26T05:10:30.791Z,10.70
2022-12-26T05:13:01.915Z,10.70
2022-12-26T05:15:51.123Z,10.60
2022-12-26T05:18:40.756Z,10.60
2022-12-26T05:21:35.427Z,10.60
2022-12-26T05:24:46.789Z,10.60
2022-12-26T05:27:37.337Z,10.60
2022-12-26T05:30:09.329Z,10.60
2022-12-26T05:32:56.239Z,10.60
2022-12-26T05:35:29.196Z,10.60
2022-12-26T05:37:58.952Z,10.60
2022-12-26T05:40:28.080Z,10.60
2022-12-26T05:42:58.222Z,10.70
2022-12-26T05:45:30.745Z,10.60
2022-12-26T05:48:04.492Z,10.60
2022-12-26T05:50:35.487Z,10.60
2022-12-26T05:53:09.877Z,10.70
2022-12-26T05:55:43.226Z,10.70
2022-12-26T05:58:12.871Z,10.70
2022-12-26T06:00:46.753Z,10.60
2022-12-26T06:03:17.810Z,10.60
2022-12-26T06:05:49.079Z,10.60
2022-12-26T06:08:19.441Z,10.60
2022-12-26T06:10:51.427Z,10.50
2022-12-26T06:13:18.921Z,10.50
2022-12-26T06:15:50.594Z,10.50
2022-12-26T06:18:19.706Z,10.50
2022-12-26T06:20:51.510Z,10.40
2022-12-26T06:23:25.535Z,10.50
2022-12-26T06:25:58.253Z,10.50
2022-12-26T06:28:29.101Z,10.50
2022-12-26T06:31:08.593Z,10.50
2022-12-26T06:33:40.267Z,10.40
2022-12-26T06:36:15.299Z,10.40
2022-12-26T06:38:50.220Z,10.40
2022-12-26T06:41:25.266Z,10.40
2022-12-26T06:43:56.615Z,10.50
2022-12-26T06:46:28.648Z,10.50
2022-12-26T06:48:55.966Z,10.50
2022-12-26T06:51:28.938Z,10.50
2022-12-26T06:54:07.199Z,10.40
2022-12-26T06:56:42.569Z,10.50
2022-12-26T06:59:14.957Z,10.50
2022-12-26T07:01:50.459Z,10.50
2022-12-26T07:04:20.512Z,10.50
2022-12-26T07:06:49.772Z,10.40
2022-12-26T07:09:19.487Z,10.50
2022-12-26T07:11:50.914Z,10.60
2022-12-26T07:14:19.944Z,10.60
2022-12-26T07:16:49.653Z,10.70
2022-12-26T07:19:16.980Z,10.70
2022-12-26T07:21:46.081Z,10.70
2022-12-26T07:24:19.777Z,10.70
2022-12-26T07:26:49.383Z,10.80
2022-12-26T07:29:25.370Z,10.70
2022-12-26T07:31:53.142Z,10.80
2022-12-26T07:34:29.441Z,10.80
2022-12-26T07:37:01.681Z,10.80
2022-12-26T07:39:31.482Z,10.90
2022-12-26T07:42:00.184Z,11.00
2022-12-26T07:44:29.897Z,11.00
2022-12-26T07:47:00.923Z,11.00
2022-12-26T07:49:33.380Z,11.10
2022-12-26T07:52:10.167Z,11.10
2022-12-26T07:54:40.256Z,11.10
2022-12-26T07:57:46.387Z,11.10
2022-12-26T08:00:01.477Z,11.10
2022-12-26T08:02:42.655Z,11.10
2022-12-26T08:05:09.939Z,11.20
2022-12-26T08:07:40.467Z,11.30
2022-12-26T08:10:12.640Z,11.30
2022-12-26T08:12:41.613Z,11.20
2022-12-26T08:15:11.776Z,11.30
2022-12-26T08:17:39.184Z,11.30
2022-12-26T08:20:10.766Z,11.30
2022-12-26T08:22:40.632Z,11.30
2022-12-26T08:25:12.482Z,11.30
2022-12-26T08:27:44.514Z,11.30
2022-12-26T08:30:12.241Z,11.20
2022-12-26T08:32:44.342Z,11.30
2022-12-26T08:35:17.564Z,11.30
2022-12-26T08:37:49.620Z,11.40
2022-12-26T08:40:26.767Z,11.50
2022-12-26T08:43:30.330Z,11.60
2022-12-26T08:46:10.753Z,11.70
2022-12-26T08:48:43.901Z,11.70
2022-12-26T08:51:17.541Z,11.80
2022-12-26T08:53:52.183Z,11.80
2022-12-26T08:56:35.069Z,11.90
2022-12-26T08:59:03.898Z,11.80
2022-12-26T09:01:33.114Z,11.80
2022-12-26T09:04:07.569Z,11.80
2022-12-26T09:06:44.626Z,11.80
2022-12-26T09:09:13.059Z,11.80
2022-12-26T09:11:42.146Z,11.80
2022-12-26T09:14:11.283Z,11.90
2022-12-26T09:16:49.720Z,11.90
2022-12-26T09:19:21.966Z,11.90
2022-12-26T09:22:17.160Z,12.00
2022-12-26T09:24:47.596Z,12.00
2022-12-26T09:27:16.306Z,12.10
2022-12-26T09:29:43.967Z,12.20
2022-12-26T09:32:12.080Z,12.30
2022-12-26T09:34:43.401Z,12.30
2022-12-26T09:37:15.256Z,12.30
2022-12-26T09:39:45.216Z,12.40
2022-12-26T09:42:40.730Z,12.40
2022-12-26T09:45:19.227Z,12.40
2022-12-26T09:48:21.248Z,12.40
2022-12-26T09:50:54.428Z,12.40
2022-12-26T09:53:46.874Z,12.40
2022-12-26T09:56:44.676Z,12.40
2022-12-26T09:59:18.390Z,12.50
2022-12-26T10:01:52.433Z,12.50
2022-12-26T10:04:47.106Z,12.50
2022-12-26T10:07:40.691Z,12.60
2022-12-26T10:10:16.149Z,12.70
2022-12-26T10:13:36.246Z,12.70
2022-12-26T10:16:16.935Z,12.80
2022-12-26T10:19:32.271Z,12.90
2022-12-26T10:22:47.865Z,13.00
2022-12-26T10:25:47.955Z,13.00
2022-12-26T10:28:26.948Z,13.10
2022-12-26T10:31:03.885Z,13.10
2022-12-26T10:33:49.966Z,13.10
2022-12-26T10:36:37.346Z,13.30
2022-12-26T10:39:15.193Z,13.50
2022-12-26T10:41:51.236Z,13.60
2022-12-26T10:44:27.185Z,13.80
2022-12-26T10:47:20.988Z,13.90
2022-12-26T10:49:50.957Z,14.00
2022-12-26T10:52:25.098Z,14.10
2022-12-26T10:55:29.301Z,14.20
2022-12-26T10:57:55.732Z,14.20
2022-12-26T11:00:29.421Z,14.20
2022-12-26T11:03:18.085Z,14.30
2022-12-26T11:06:07.874Z,14.20
2022-12-26T11:08:50.049Z,14.20
2022-12-26T11:11:49.121Z,14.20
2022-12-26T11:14:34.572Z,14.20
2022-12-26T11:17:14.833Z,14.30
2022-12-26T11:19:44.425Z,14.50
2022-12-26T11:22:36.958Z,14.60
2022-12-26T11:25:16.810Z,14.70
2022-12-26T11:27:58.751Z,14.60
2022-12-26T11:30:31.811Z,14.70
2022-12-26T11:33:58.741Z,14.70
2022-12-26T11:36:35.620Z,14.70
2022-12-26T11:39:27.030Z,14.70
2022-12-26T11:42:00.731Z,14.70
2022-12-26T11:44:37.869Z,14.70
2022-12-26T11:47:23.012Z,14.60
2022-12-26T11:50:11.846Z,14.70
2022-12-26T11:53:04.604Z,14.70
2022-12-26T11:55:42.752Z,14.60
2022-12-26T11:58:15.475Z,14.60
2022-12-26T12:01:08.090Z,14.60
2022-12-26T12:03:50.171Z,14.60
2022-12-26T12:06:38.228Z,14.60
2022-12-26T12:09:28.507Z,14.60
2022-12-26T12:12:28.825Z,14.60
2022-12-26T12:15:40.172Z,14.60
2022-12-26T12:18:49.184Z,14.70
2022-12-26T12:22:09.624Z,14.70
2022-12-26T12:25:14.211Z,14.80
2022-12-26T12:27:55.068Z,14.90
2022-12-26T12:30:36.350Z,15.10
2022-12-26T12:33:38.117Z,15.20
2022-12-26T12:37:00.702Z,15.30
2022-12-26T12:39:43.284Z,15.50
2022-12-26T12:42:33.099Z,15.70
2022-12-26T12:45:31.863Z,15.90
2022-12-26T12:48:14.262Z,16.20
2022-12-26T12:51:17.581Z,16.40
2022-12-26T12:54:07.533Z,16.50
2022-12-26T12:57:12.421Z,16.70
2022-12-26T13:00:22.116Z,17.50
2022-12-26T13:03:19.209Z,19.20
2022-12-26T13:05:50.373Z,21.50
2022-12-26T13:08:42.260Z,23.30
2022-12-26T13:11:34.911Z,24.60
2022-12-26T13:14:08.751Z,25.70
2022-12-26T13:16:58.216Z,26.50
2022-12-26T13:19:51.536Z,27.00
2022-12-26T13:22:59.524Z,27.40
2022-12-26T13:25:39.472Z,27.50
2022-12-26T13:28:17.914Z,26.50
2022-12-26T13:30:59.634Z,25.60
2022-12-26T13:33:29.710Z,24.50
2022-12-26T13:36:06.191Z,23.80
2022-12-26T13:39:07.184Z,23.40
2022-12-26T13:41:58.117Z,23.10
2022-12-26T13:44:29.894Z,22.60
2022-12-26T13:46:59.467Z,21.90
2022-12-26T13:49:39.489Z,21.50
2022-12-26T13:52:34.337Z,21.00
2022-12-26T13:55:32.648Z,20.50
2022-12-26T13:58:23.517Z,20.20
2022-12-26T14:01:00.746Z,19.80
2022-12-26T14:03:51.501Z,19.50
2022-12-26T14:06:40.711Z,19.30
2022-12-26T14:09:40.545Z,19.00
2022-12-26T14:12:44.056Z,18.70
2022-12-26T14:15:54.112Z,18.40
2022-12-26T14:18:53.151Z,18.20
2022-12-26T14:21:47.373Z,18.10
2022-12-26T14:24:49.560Z,17.80
2022-12-26T14:28:00.903Z,17.50
2022-12-26T14:31:11.755Z,17.30
2022-12-26T14:33:48.622Z,17.10
2022-12-26T14:36:38.040Z,16.80
2022-12-26T14:39:55.299Z,16.70
2022-12-26T14:42:48.746Z,16.50
2022-12-26T14:45:33.380Z,16.40
2022-12-26T14:48:23.267Z,16.30
2022-12-26T14:50:55.504Z,16.20
2022-12-26T14:53:37.155Z,16.10
2022-12-26T14:56:20.676Z,15.90
2022-12-26T14:59:33.306Z,15.80
2022-12-26T15:02:19.734Z,15.70
2022-12-26T15:05:28.651Z,15.50
2022-12-26T15:08:29.948Z,15.30
2022-12-26T15:11:36.606Z,15.20
2022-12-26T15:14:44.053Z,15.10
2022-12-26T15:17:43.735Z,15.00
2022-12-26T15:20:42.286Z,15.00
2022-12-26T15:23:32.685Z,14.90
2022-12-26T15:26:36.104Z,14.90
2022-12-26T15:29:34.995Z,14.80
2022-12-26T15:32:26.150Z,14.70
2022-12-26T15:35:33.157Z,14.70
2022-12-26T15:38:36.641Z,14.60
2022-12-26T15:41:35.703Z,14.60
2022-12-26T15:44:10.137Z,14.50
2022-12-26T15:47:05.932Z,14.50
2022-12-26T15:50:00.811Z,14.40
2022-12-26T15:53:19.330Z,14.40
2022-12-26T15:56:06.667Z,14.30
2022-12-26T15:59:16.198Z,14.30
2022-12-26T16:01:49.439Z,14.30
2022-12-26T16:04:47.382Z,14.20
2022-12-26T16:07:47.348Z,14.20
2022-12-26T16:10:36.190Z,14.20
2022-12-26T16:13:28.793Z,14.10
2022-12-26T16:16:03.475Z,14.10
2022-12-26T16:18:35.220Z,14.10
2022-12-26T16:21:29.215Z,14.00
2022-12-26T16:23:57.554Z,14.00
2022-12-26T16:26:29.210Z,14.00
2022-12-26T16:29:00.820Z,14.00
2022-12-26T16:34:20.901Z,13.90
2022-12-26T16:36:53.885Z,13.90
2022-12-26T16:39:26.417Z,13.90
2022-12-26T16:42:10.504Z,13.90
2022-12-26T16:44:41.547Z,13.80
2022-12-26T16:47:22.795Z,13.80
2022-12-26T16:49:52.876Z,13.80
2022-12-26T16:52:46.222Z,13.80
2022-12-26T16:55:35.850Z,13.80
2022-12-26T16:58:23.292Z,13.80
2022-12-26T17:01:16.032Z,13.80
2022-12-26T17:04:06.334Z,13.80
2022-12-26T17:06:46.102Z,13.70
2022-12-26T17:09:19.133Z,13.70
2022-12-26T17:12:01.116Z,13.70
2022-12-26T17:14:35.327Z,13.70
2022-12-26T17:17:27.204Z,13.60
2022-12-26T17:20:01.731Z,13.60
2022-12-26T18:25:25.587Z,13.70
2022-12-26T18:27:53.722Z,13.80
2022-12-26T18:30:26.940Z,13.70
2022-12-26T18:32:54.895Z,13.70
2022-12-26T18:35:23.312Z,13.80
2022-12-26T18:37:54.457Z,13.70
2022-12-26T18:40:49.684Z,13.70
2022-12-26T18:43:22.177Z,13.80
2022-12-26T18:45:51.870Z,13.80
2022-12-26T18:48:20.344Z,13.80
2022-12-26T18:50:48.678Z,13.80
2022-12-26T18:53:19.513Z,13.80
2022-12-26T18:55:53.111Z,13.80
2022-12-26T18:58:23.541Z,13.80
2022-12-26T19:00:56.766Z,13.90
2022-12-26T19:03:27.838Z,13.90
2022-12-26T19:05:56.783Z,13.90
2022-12-26T19:08:28.232Z,13.90
2022-12-26T19:10:58.442Z,13.80
2022-12-26T19:13:30.781Z,13.90
2022-12-26T19:16:02.076Z,13.90
2022-12-26T19:18:29.875Z,13.90
2022-12-26T19:21:01.574Z,13.90
2022-12-26T19:23:33.737Z,13.70
2022-12-26T19:26:10.719Z,13.70
2022-12-26T19:28:41.675Z,13.70
2022-12-26T19:31:18.674Z,13.80
2022-12-26T19:33:50.310Z,13.70
2022-12-26T19:36:17.941Z,13.80
2022-12-26T19:38:48.648Z,13.80
2022-12-26T19:41:19.342Z,13.80
2022-12-26T19:43:46.934Z,13.80
2022-12-26T19:46:16.392Z,13.90
2022-12-26T19:48:44.872Z,13.80
2022-12-26T19:51:15.062Z,13.80
2022-12-26T19:53:45.261Z,13.80
2022-12-26T19:56:18.362Z,13.80
2022-12-26T19:58:53.127Z,13.70
2022-12-26T20:01:29.483Z,13.60
2022-12-26T20:04:18.887Z,13.50
2022-12-26T20:06:47.574Z,13.50
2022-12-26T20:09:18.030Z,13.50
2022-12-26T20:11:49.478Z,13.50
2022-12-26T20:14:23.839Z,13.50
2022-12-26T20:17:07.559Z,13.50
2022-12-26T20:19:36.391Z,13.60
2022-12-26T20:22:05.843Z,13.50
2022-12-26T20:24:34.510Z,13.50
2022-12-26T20:27:07.635Z,13.50
2022-12-26T20:29:35.760Z,13.40
2022-12-26T20:32:06.239Z,13.40
2022-12-26T20:34:35.274Z,13.30
2022-12-26T20:37:06.484Z,13.40
2022-12-26T20:39:36.079Z,13.40
2022-12-26T20:42:05.897Z,13.40
2022-12-26T20:44:35.563Z,13.50
2022-12-26T20:47:09.985Z,13.40
2022-12-26T20:49:37.870Z,13.50
2022-12-26T20:52:11.456Z,13.40
2022-12-26T20:54:40.525Z,13.40
2022-12-26T20:57:10.349Z,13.30
2022-12-26T20:59:40.175Z,13.30
2022-12-26T21:02:07.978Z,13.30
2022-12-26T21:04:43.619Z,13.20
2022-12-26T21:07:14.205Z,13.30
2022-12-26T21:09:46.563Z,13.30
2022-12-26T21:12:17.719Z,13.30
2022-12-26T21:14:46.957Z,13.30
2022-12-26T21:17:19.104Z,13.40
2022-12-26T21:19:49.803Z,13.30
2022-12-26T21:22:22.673Z,13.30
2022-12-26T21:24:51.401Z,13.30
2022-12-26T21:27:23.213Z,13.30
2022-12-26T21:29:56.236Z,13.30
2022-12-26T21:32:26.325Z,13.40
2022-12-26T21:34:57.171Z,13.30
2022-12-26T21:37:44.216Z,13.40
2022-12-26T21:40:14.007Z,13.40
2022-12-26T21:42:47.264Z,13.40
2022-12-26T21:45:14.866Z,13.40
2022-12-26T21:47:43.827Z,13.30
2022-12-26T21:50:14.793Z,13.30
2022-12-26T21:52:42.805Z,13.40
2022-12-26T21:55:31.295Z,13.40
2022-12-26T21:58:01.201Z,13.30
2022-12-26T22:00:32.067Z,13.40
2022-12-26T22:03:22.799Z,13.40
2022-12-26T22:05:55.100Z,13.50
2022-12-26T22:08:25.342Z,13.50
2022-12-26T22:11:13.310Z,13.60
2022-12-26T22:13:44.569Z,13.60
2022-12-26T22:16:13.119Z,13.60
2022-12-26T22:18:43.877Z,13.70
2022-12-26T22:21:27.749Z,13.70
2022-12-26T22:23:59.624Z,13.70
2022-12-26T22:26:36.614Z,13.80
2022-12-26T22:29:06.345Z,13.80
2022-12-26T22:31:36.470Z,13.80
2022-12-26T22:34:10.959Z,13.80
2022-12-26T22:36:41.735Z,13.80
2022-12-26T22:42:02.510Z,13.90
2022-12-26T22:44:36.801Z,13.90
2022-12-26T22:47:06.851Z,13.90
2022-12-26T22:49:35.910Z,13.90
2022-12-26T22:52:14.046Z,13.90
2022-12-26T22:54:46.859Z,13.90
2022-12-26T22:57:27.488Z,13.90
2022-12-26T23:00:12.166Z,13.90
2022-12-26T23:02:41.121Z,14.00
2022-12-26T23:05:14.654Z,14.00
2022-12-26T23:07:43.633Z,14.00
2022-12-26T23:10:20.994Z,14.00
2022-12-26T23:12:53.426Z,14.00
2022-12-26T23:15:25.440Z,14.00
2022-12-26T23:18:52.341Z,14.00
2022-12-26T23:21:45.942Z,14.00
2022-12-26T23:24:26.813Z,14.10
2022-12-26T23:27:37.751Z,14.10
2022-12-26T23:30:23.325Z,14.10
2022-12-26T23:32:54.856Z,14.10
2022-12-26T23:35:24.745Z,14.10
2022-12-26T23:37:54.823Z,14.10
2022-12-26T23:40:24.892Z,14.10
2022-12-26T23:42:54.142Z,14.00
2022-12-26T23:45:22.185Z,14.00
2022-12-26T23:47:54.008Z,14.10
2022-12-26T23:50:21.613Z,14.00
2022-12-26T23:52:55.664Z,14.10
2022-12-26T23:55:24.417Z,14.00
2022-12-26T23:57:58.372Z,14.00
